SABE/AEP METAR and TAF weather

Enter ICAO airport designator
Station Type Date Time Source
SABE METAR 2023/01/29 19:00 UTC NOAA

SABE 291900Z 10016KT 9999 FEW038 27/18 Q1015 NOSIG RMK PP000


Station Type Date Time Source
SABE Decoded METAR 2023/01/29 19:00 UTC NOAA

Aeroparque Bs. As. Aerodrome, Argentina (SABE) 34-34S 058-25W 6M
Jan 29, 2023 - 02:00 PM EST / 2023.01.29 1900 UTC
Wind: from the E (100 degrees) at 18 MPH (16 KT):0
Visibility: greater than 7 mile(s):0
Sky conditions: mostly clear
Temperature: 80 F (27 C)
Dew Point: 64 F (18 C)
Relative Humidity: 57%
Pressure (altimeter): 29.97 in. Hg (1015 hPa)
ob: SABE 291900Z 10016KT 9999 FEW038 27/18 Q1015 NOSIG RMK PP000
cycle: 19

Station Type Date Time Source
SABE TAF 2023/01/29 18:21 UTC NOAA

TAF SABE 291700Z 2918/3018 11010KT 9999 FEW035 TX27/3018Z TN21/3009Z
TEMPO 2918/2923 11015G25KT
BECMG 2923/3001 9999 SCT015
BECMG 3011/3013 CAVOK

Example: see airport list